Time;durP1;ratioP1;P1;durP2;ratioP2;P2;SDS_P1;SDS_P2;PMS_P1;PMS_P2;Temp;Humidity;BMP_temperature;BMP_pressure;BME280_temperature;BME280_humidity;BME280_pressure;Samples;Min_cycle;Max_cycle;Signal;HPM_P1;HPM_P2
2021/10/09 00:00:55;;;;;;;18.57;7.93;;;3.40;97.90;;;;;;4156849;28;20754;-70
2021/10/09 00:02:56;;;;;;;24.10;7.93;;;3.40;97.90;;;;;;4157894;28;20759;-65
2021/10/09 00:04:57;;;;;;;15.70;7.87;;;3.30;98.40;;;;;;4156971;28;20263;-64
2021/10/09 00:06:58;;;;;;;23.77;8.30;;;3.20;98.40;;;;;;4157976;28;20381;-65
2021/10/09 00:08:59;;;;;;;17.10;7.63;;;3.10;98.30;;;;;;4157027;28;20289;-65
2021/10/09 00:11:01;;;;;;;24.30;8.83;;;3.10;98.60;;;;;;4158020;28;20290;-69
2021/10/09 00:13:02;;;;;;;21.57;8.23;;;3.00;98.70;;;;;;4157438;28;20322;-70
2021/10/09 00:15:05;;;;;;;24.27;8.63;;;2.90;98.80;;;;;;4166010;28;20274;-70
2021/10/09 00:17:08;;;;;;;20.97;8.13;;;3.00;99.00;;;;;;4171591;28;20312;-65
2021/10/09 00:19:10;;;;;;;15.77;8.23;;;2.90;99.00;;;;;;4173229;28;20665;-76
2021/10/09 00:21:11;;;;;;;20.00;8.53;;;3.00;99.20;;;;;;4173141;28;20304;-69
2021/10/09 00:23:13;;;;;;;15.10;7.67;;;3.00;99.40;;;;;;4173281;28;20308;-71
2021/10/09 00:25:14;;;;;;;16.60;7.37;;;2.90;99.50;;;;;;4173150;28;20258;-70
2021/10/09 00:27:15;;;;;;;18.13;6.70;;;2.80;99.70;;;;;;4156314;28;20754;-68
2021/10/09 00:29:16;;;;;;;16.50;7.50;;;2.60;99.90;;;;;;4157761;28;20267;-66
2021/10/09 00:31:17;;;;;;;16.30;7.53;;;2.50;99.90;;;;;;4163835;28;20298;-64
2021/10/09 00:33:18;;;;;;;16.83;8.27;;;2.40;99.90;;;;;;4170406;28;20267;-65
2021/10/09 00:35:19;;;;;;;18.73;8.00;;;2.30;99.90;;;;;;4156155;28;20267;-69
2021/10/09 00:37:20;;;;;;;16.80;6.73;;;2.30;99.90;;;;;;4167185;28;20324;-69
2021/10/09 00:39:21;;;;;;;15.70;7.17;;;2.30;99.90;;;;;;4172250;28;20270;-64
2021/10/09 00:41:23;;;;;;;16.53;6.80;;;2.30;99.90;;;;;;4173632;28;20278;-70
2021/10/09 00:43:24;;;;;;;22.87;7.20;;;2.20;99.90;;;;;;4172356;28;20665;-66
2021/10/09 00:45:25;;;;;;;12.70;6.70;;;2.20;99.90;;;;;;4171903;28;20344;-64
2021/10/09 00:47:26;;;;;;;15.27;6.00;;;2.10;99.90;;;;;;4172542;28;20309;-65
2021/10/09 00:49:32;;;;;;;11.20;6.53;;;2.00;99.90;;;;;;4171599;28;20270;-66
2021/10/09 00:51:33;;;;;;;13.27;6.50;;;1.90;99.90;;;;;;4172773;28;20285;-64
2021/10/09 00:53:36;;;;;;;12.37;5.63;;;1.80;99.90;;;;;;4168711;28;20678;-64
2021/10/09 00:55:39;;;;;;;16.37;6.03;;;1.80;99.90;;;;;;4156334;28;20287;-64
2021/10/09 00:57:43;;;;;;;28.97;7.20;;;1.80;99.90;;;;;;4156877;28;20266;-76
2021/10/09 00:59:49;;;;;;;13.63;7.40;;;1.90;99.90;;;;;;4157069;28;20259;-69
2021/10/09 01:01:51;;;;;;;15.93;6.30;;;1.90;99.90;;;;;;4155184;28;20313;-71
2021/10/09 01:03:52;;;;;;;14.90;6.93;;;1.90;99.90;;;;;;4157632;28;20340;-67
2021/10/09 01:05:53;;;;;;;17.63;6.73;;;1.90;99.90;;;;;;4160602;28;20584;-74
2021/10/09 01:07:55;;;;;;;19.13;7.07;;;1.90;99.90;;;;;;4173257;28;20266;-64
2021/10/09 01:09:56;;;;;;;15.33;6.27;;;1.90;99.90;;;;;;4170085;28;20278;-67
2021/10/09 01:11:57;;;;;;;21.33;7.33;;;1.90;99.90;;;;;;4157299;28;20344;-70
2021/10/09 01:13:58;;;;;;;17.27;7.17;;;1.90;99.90;;;;;;4155236;28;20270;-65
2021/10/09 01:16:00;;;;;;;19.20;7.03;;;1.90;99.90;;;;;;4158648;28;21192;-64
2021/10/09 01:18:13;;;;;;;18.30;6.87;;;1.80;99.90;;;;;;4155853;28;20608;-66
2021/10/09 01:20:15;;;;;;;16.17;6.77;;;1.80;99.90;;;;;;4156891;28;20750;-65
2021/10/09 01:22:17;;;;;;;17.77;6.20;;;1.90;99.90;;;;;;4155217;28;20360;-64
2021/10/09 01:24:20;;;;;;;17.73;7.20;;;1.90;99.90;;;;;;4156731;28;20324;-66
2021/10/09 01:26:21;;;;;;;12.37;5.93;;;1.80;99.90;;;;;;4164766;28;20662;-64
2021/10/09 01:28:22;;;;;;;12.93;7.03;;;1.70;99.90;;;;;;4171882;28;20328;-66
2021/10/09 01:30:23;;;;;;;17.37;6.53;;;1.60;99.90;;;;;;4157336;28;20693;-65
2021/10/09 01:32:25;;;;;;;19.13;7.87;;;1.40;99.90;;;;;;4156603;28;20324;-64
2021/10/09 01:34:28;;;;;;;16.77;7.70;;;1.40;99.90;;;;;;4156586;28;20320;-63
2021/10/09 01:36:32;;;;;;;18.80;8.60;;;1.40;99.90;;;;;;4159380;28;20282;-62
2021/10/09 01:38:35;;;;;;;21.60;7.90;;;1.30;99.90;;;;;;4157115;28;20320;-69
2021/10/09 01:40:36;;;;;;;19.03;8.73;;;1.40;99.90;;;;;;4157641;28;20282;-64
2021/10/09 01:42:37;;;;;;;20.50;8.03;;;1.40;99.90;;;;;;4161766;28;20274;-71
2021/10/09 01:44:39;;;;;;;20.27;7.40;;;1.50;99.90;;;;;;4160831;28;20278;-63
2021/10/09 01:46:40;;;;;;;18.07;7.67;;;1.50;99.90;;;;;;4176236;28;20336;-64
2021/10/09 01:48:42;;;;;;;20.57;7.70;;;1.60;99.90;;;;;;4175255;28;20320;-68
2021/10/09 01:50:44;;;;;;;29.17;8.67;;;1.60;99.90;;;;;;4176484;28;20286;-67
2021/10/09 01:52:45;;;;;;;26.07;8.20;;;1.60;99.90;;;;;;4174340;28;20343;-65
2021/10/09 01:54:47;;;;;;;20.57;8.60;;;1.60;99.90;;;;;;4175201;28;20331;-69
2021/10/09 01:56:49;;;;;;;19.93;8.43;;;1.60;99.90;;;;;;4174489;28;20785;-64
2021/10/09 01:58:51;;;;;;;22.33;8.20;;;1.60;99.90;;;;;;4175896;28;20270;-74
2021/10/09 02:00:53;;;;;;;18.73;7.93;;;1.60;99.90;;;;;;4172480;28;20320;-65
2021/10/09 02:02:59;;;;;;;18.03;7.67;;;1.60;99.90;;;;;;4170196;28;20282;-66
2021/10/09 02:05:00;;;;;;;17.20;6.97;;;1.60;99.90;;;;;;4175031;28;20273;-72
2021/10/09 02:07:01;;;;;;;12.97;5.33;;;1.60;99.90;;;;;;4166646;28;20274;-62
2021/10/09 02:09:03;;;;;;;16.27;6.90;;;1.50;99.90;;;;;;4159527;28;20325;-67
2021/10/09 02:11:09;;;;;;;12.73;6.37;;;1.50;99.90;;;;;;4158114;28;20291;-74
2021/10/09 02:13:12;;;;;;;16.67;5.93;;;1.50;99.90;;;;;;4159215;28;20850;-68
2021/10/09 02:15:20;;;;;;;15.30;6.63;;;1.50;99.90;;;;;;4158836;28;20275;-68
2021/10/09 02:26:24;;;;;;;18.10;6.80;;;1.40;99.90;;;;;;4159032;28;20915;-64
2021/10/09 02:28:25;;;;;;;12.83;6.10;;;1.50;99.90;;;;;;4157848;28;20328;-62
2021/10/09 02:30:26;;;;;;;13.37;5.90;;;1.60;99.90;;;;;;4189106;28;20285;-63
2021/10/09 02:32:29;;;;;;;14.17;7.13;;;1.60;99.90;;;;;;4157599;28;20259;-64
2021/10/09 02:34:30;;;;;;;15.73;6.77;;;1.60;99.90;;;;;;4159317;28;20254;-68
2021/10/09 02:36:31;;;;;;;13.10;6.53;;;1.60;99.90;;;;;;4158168;28;20324;-65
2021/10/09 02:38:32;;;;;;;16.00;7.30;;;1.70;99.90;;;;;;4159988;28;20270;-63
2021/10/09 02:40:36;;;;;;;14.13;6.30;;;1.70;99.90;;;;;;4160102;28;20270;-64
2021/10/09 02:42:37;;;;;;;17.37;6.93;;;1.70;99.90;;;;;;4163973;28;20336;-66
2021/10/09 02:44:39;;;;;;;14.23;6.30;;;1.80;99.90;;;;;;4158559;28;20747;-67
2021/10/09 02:46:40;;;;;;;14.93;6.37;;;1.70;99.90;;;;;;4159392;28;20274;-73
2021/10/09 02:48:42;;;;;;;16.43;6.93;;;1.70;99.90;;;;;;4158387;28;20278;-64
2021/10/09 02:50:44;;;;;;;14.43;6.03;;;1.70;99.90;;;;;;4158513;28;20278;-65
2021/10/09 02:52:45;;;;;;;18.83;6.67;;;1.70;99.90;;;;;;4162955;28;20674;-64
2021/10/09 02:54:47;;;;;;;17.40;6.93;;;1.70;99.90;;;;;;4159530;28;20278;-67
2021/10/09 02:56:48;;;;;;;17.17;7.43;;;1.80;99.90;;;;;;4174202;28;20757;-63
2021/10/09 02:58:49;;;;;;;17.70;7.33;;;1.70;99.90;;;;;;4164804;28;20262;-65
2021/10/09 03:00:50;;;;;;;15.83;6.70;;;1.70;99.90;;;;;;4164317;28;20744;-64
2021/10/09 03:02:51;;;;;;;15.03;7.07;;;1.70;99.90;;;;;;4173636;28;21097;-65
2021/10/09 03:04:52;;;;;;;18.27;6.93;;;1.70;99.90;;;;;;4175522;28;20270;-68
2021/10/09 03:06:54;;;;;;;19.43;7.60;;;1.70;99.90;;;;;;4159857;28;20321;-64
2021/10/09 03:08:55;;;;;;;19.27;7.97;;;1.70;99.90;;;;;;4159217;28;20313;-64
2021/10/09 03:10:56;;;;;;;18.47;6.97;;;1.70;99.90;;;;;;4156868;28;20294;-67
2021/10/09 03:12:57;;;;;;;24.27;7.13;;;1.60;99.90;;;;;;4158903;28;20739;-63
2021/10/09 03:14:58;;;;;;;18.53;7.73;;;1.70;99.90;;;;;;4158243;28;20267;-63
2021/10/09 03:16:59;;;;;;;17.67;7.83;;;1.70;99.90;;;;;;4161586;28;20270;-64
2021/10/09 03:19:01;;;;;;;17.17;7.13;;;1.60;99.90;;;;;;4172609;28;20278;-67
2021/10/09 03:21:02;;;;;;;15.67;8.30;;;1.60;99.90;;;;;;4167926;28;20333;-65
2021/10/09 03:23:03;;;;;;;17.50;7.83;;;1.60;99.90;;;;;;4157578;28;20998;-67
2021/10/09 03:25:05;;;;;;;16.67;8.30;;;1.60;99.90;;;;;;4157815;28;20686;-65
2021/10/09 03:27:07;;;;;;;20.90;8.30;;;1.60;99.90;;;;;;4169718;28;20266;-67
2021/10/09 03:29:08;;;;;;;18.40;7.97;;;1.60;99.90;;;;;;4173542;28;20355;-64
2021/10/09 03:31:10;;;;;;;18.70;8.43;;;1.60;99.90;;;;;;4166888;28;20360;-70
2021/10/09 03:33:11;;;;;;;23.77;9.00;;;1.60;99.90;;;;;;4156729;28;20275;-64
2021/10/09 03:35:14;;;;;;;15.63;7.23;;;1.70;99.90;;;;;;4163297;28;20278;-68
2021/10/09 03:37:15;;;;;;;18.93;8.57;;;1.60;99.90;;;;;;4173430;28;20826;-65
2021/10/09 03:39:19;;;;;;;18.53;8.60;;;1.70;99.90;;;;;;4171848;28;20820;-66
2021/10/09 03:41:20;;;;;;;21.40;8.90;;;1.70;99.90;;;;;;4156609;28;20769;-68
2021/10/09 03:43:23;;;;;;;21.60;8.43;;;1.80;99.90;;;;;;4158528;28;20349;-65
2021/10/09 03:46:28;;;;;;;20.27;9.17;;;1.80;99.90;;;;;;4157846;28;20332;-70
2021/10/09 03:52:38;;;;;;;21.83;8.20;;;1.80;99.90;;;;;;4158263;28;20698;-64
2021/10/09 03:54:40;;;;;;;18.83;7.97;;;1.80;99.90;;;;;;4157148;28;20266;-64
2021/10/09 03:56:41;;;;;;;20.00;7.77;;;1.80;99.90;;;;;;4157847;28;20337;-64
2021/10/09 03:58:42;;;;;;;18.40;8.67;;;1.80;99.90;;;;;;4156105;28;20271;-66
2021/10/09 04:00:43;;;;;;;13.73;7.13;;;1.80;99.90;;;;;;4158862;28;20278;-65
2021/10/09 04:02:45;;;;;;;19.70;7.90;;;1.70;99.90;;;;;;4156579;28;20320;-63
2021/10/09 04:04:46;;;;;;;13.90;7.23;;;1.70;99.90;;;;;;4172405;28;20282;-69
2021/10/09 04:06:47;;;;;;;16.97;7.37;;;1.70;99.90;;;;;;4171997;28;20282;-64
2021/10/09 04:08:48;;;;;;;15.40;7.47;;;1.70;99.90;;;;;;4172671;28;20749;-65
2021/10/09 04:10:49;;;;;;;18.17;7.53;;;1.70;99.90;;;;;;4160386;28;20262;-64
2021/10/09 04:12:50;;;;;;;15.43;7.50;;;1.70;99.90;;;;;;4173951;28;20328;-64
2021/10/09 04:14:51;;;;;;;12.03;6.63;;;1.70;99.90;;;;;;4169823;28;20270;-65
2021/10/09 04:16:52;;;;;;;21.63;7.50;;;1.70;99.90;;;;;;4157369;28;20255;-65
2021/10/09 04:18:53;;;;;;;18.40;7.43;;;1.60;99.90;;;;;;4157297;28;20353;-69
2021/10/09 04:20:54;;;;;;;18.47;7.03;;;1.70;99.90;;;;;;4161212;28;20262;-66
2021/10/09 04:22:56;;;;;;;17.33;6.97;;;1.60;99.90;;;;;;4174058;28;20351;-66
2021/10/09 04:24:57;;;;;;;18.27;7.10;;;1.60;99.90;;;;;;4162301;28;20270;-72
2021/10/09 04:26:58;;;;;;;14.30;6.77;;;1.70;99.90;;;;;;4171554;28;20308;-68
2021/10/09 04:28:59;;;;;;;15.53;6.83;;;1.70;99.90;;;;;;4172594;28;20262;-64
2021/10/09 04:31:01;;;;;;;19.50;7.50;;;1.60;99.90;;;;;;4173355;28;20266;-66
2021/10/09 04:33:02;;;;;;;16.23;8.37;;;1.60;99.90;;;;;;4156117;28;20274;-72
2021/10/09 04:35:04;;;;;;;16.57;8.20;;;1.60;99.90;;;;;;4165179;28;20376;-67
2021/10/09 04:37:05;;;;;;;17.00;7.73;;;1.60;99.90;;;;;;4170376;28;21882;-70
2021/10/09 04:39:06;;;;;;;20.33;7.30;;;1.60;99.90;;;;;;4171539;28;20266;-72
2021/10/09 04:41:07;;;;;;;14.37;6.93;;;1.70;99.90;;;;;;4171226;28;20873;-64
2021/10/09 04:43:08;;;;;;;17.80;7.13;;;1.70;99.90;;;;;;4172425;28;20395;-68
2021/10/09 04:45:10;;;;;;;15.37;7.27;;;1.70;99.90;;;;;;4161745;28;20279;-65
2021/10/09 04:47:11;;;;;;;13.40;7.47;;;1.70;99.90;;;;;;4156757;28;20266;-64
2021/10/09 04:49:12;;;;;;;14.77;6.53;;;1.70;99.90;;;;;;4156867;28;20263;-64
2021/10/09 04:51:13;;;;;;;14.40;7.40;;;1.60;99.90;;;;;;4155523;28;20340;-65
2021/10/09 04:53:14;;;;;;;17.73;7.63;;;1.60;99.90;;;;;;4157210;28;20353;-66
2021/10/09 04:55:15;;;;;;;16.10;7.10;;;1.70;99.90;;;;;;4155107;28;21085;-65
2021/10/09 04:57:16;;;;;;;14.97;7.20;;;1.70;99.90;;;;;;4157294;28;20266;-68
2021/10/09 04:59:19;;;;;;;16.07;6.80;;;1.80;99.90;;;;;;4155494;28;20270;-65
2021/10/09 05:01:20;;;;;;;14.03;7.00;;;1.90;99.90;;;;;;4165979;28;20604;-67
2021/10/09 05:03:21;;;;;;;14.07;6.00;;;2.10;99.90;;;;;;4171435;28;20328;-65
2021/10/09 05:05:22;;;;;;;13.77;6.63;;;2.20;99.90;;;;;;4172269;28;20274;-64
2021/10/09 05:07:23;;;;;;;16.87;6.23;;;2.30;99.90;;;;;;4156526;28;20270;-63
2021/10/09 05:09:24;;;;;;;18.90;7.67;;;2.40;99.90;;;;;;4165210;28;20287;-66
2021/10/09 05:11:26;;;;;;;12.13;6.40;;;2.70;99.90;;;;;;4170284;28;20881;-68
2021/10/09 05:13:27;;;;;;;14.23;6.80;;;3.00;99.90;;;;;;4156228;28;20305;-63
2021/10/09 05:15:28;;;;;;;17.53;6.53;;;3.20;99.90;;;;;;4160417;28;20304;-65
2021/10/09 05:17:29;;;;;;;19.23;6.63;;;3.60;99.90;;;;;;4170454;28;20339;-65
2021/10/09 05:19:30;;;;;;;15.07;6.50;;;4.00;99.90;;;;;;4172386;28;20278;-65
2021/10/09 05:21:32;;;;;;;17.17;6.40;;;4.40;99.90;;;;;;4169995;28;20278;-73
2021/10/09 05:23:33;;;;;;;17.23;6.13;;;4.70;99.90;;;;;;4165241;28;20755;-65
2021/10/09 05:25:36;;;;;;;11.10;5.77;;;5.00;99.90;;;;;;4155980;28;20750;-65
2021/10/09 05:27:39;;;;;;;13.80;6.27;;;5.10;99.90;;;;;;4156475;28;20301;-68
2021/10/09 05:29:41;;;;;;;16.53;6.20;;;5.30;99.90;;;;;;4155230;28;20287;-67
2021/10/09 05:31:46;;;;;;;18.77;7.37;;;5.40;99.90;;;;;;4156258;28;20298;-66
2021/10/09 05:33:47;;;;;;;13.27;6.50;;;5.40;99.90;;;;;;4155701;28;20821;-68
2021/10/09 05:35:48;;;;;;;17.83;6.80;;;5.50;99.90;;;;;;4160936;28;20278;-64
2021/10/09 05:37:49;;;;;;;15.03;7.07;;;5.60;99.90;;;;;;4171081;28;20282;-66
2021/10/09 05:39:50;;;;;;;14.00;7.00;;;5.70;99.90;;;;;;4159674;28;21801;-65
2021/10/09 05:41:51;;;;;;;15.27;7.70;;;5.70;99.90;;;;;;4170758;28;20849;-66
2021/10/09 05:43:53;;;;;;;16.87;6.93;;;5.70;99.90;;;;;;4171401;28;20037;-71
2021/10/09 05:45:54;;;;;;;15.90;6.83;;;5.70;99.90;;;;;;4168662;28;20021;-65
2021/10/09 05:47:56;;;;;;;15.93;6.77;;;6.00;99.90;;;;;;4156417;28;21122;-65
2021/10/09 05:49:57;;;;;;;20.60;7.77;;;6.60;99.90;;;;;;4155778;28;20079;-66
2021/10/09 05:52:24;;;;;;;17.93;7.60;;;7.20;99.90;;;;;;4170129;28;20913;-65
2021/10/09 05:54:51;;;;;;;16.70;7.63;;;7.60;99.70;;;;;;4154997;28;20035;-64
2021/10/09 05:56:56;;;;;;;15.77;7.00;;;8.10;99.60;;;;;;4156025;28;20038;-71
2021/10/09 06:49:21;;;;;;;12.68;6.97;;;9.20;94.00;;;;;;4175361;28;20069;-65
2021/10/09 07:00:34;;;;;;;17.38;7.97;;;9.70;93.20;;;;;;4159029;28;20797;-65
2021/10/09 07:02:40;;;;;;;16.13;6.87;;;9.80;93.20;;;;;;4173415;28;20048;-67
2021/10/09 07:04:41;;;;;;;17.97;7.47;;;10.30;93.10;;;;;;4173800;28;20481;-68
2021/10/09 07:06:42;;;;;;;15.50;7.13;;;10.50;92.70;;;;;;4172828;28;20091;-64
2021/10/09 07:08:43;;;;;;;11.47;7.07;;;10.60;92.40;;;;;;4176979;28;20082;-67
2021/10/09 07:10:47;;;;;;;14.27;6.00;;;10.80;92.10;;;;;;4173727;28;20040;-65
2021/10/09 07:12:48;;;;;;;16.07;7.23;;;11.10;92.10;;;;;;4173193;28;20083;-64
2021/10/09 07:14:49;;;;;;;12.80;7.00;;;11.70;91.50;;;;;;4174422;28;20045;-65
2021/10/09 07:16:50;;;;;;;13.27;6.53;;;12.00;91.10;;;;;;4173020;28;20029;-64
2021/10/09 07:18:52;;;;;;;17.63;7.90;;;11.90;90.50;;;;;;4174580;28;20436;-63
2021/10/09 07:20:53;;;;;;;25.40;8.60;;;11.70;90.50;;;;;;4173873;28;20049;-64
2021/10/09 07:22:54;;;;;;;15.00;7.73;;;11.80;90.70;;;;;;4173796;28;20086;-64
2021/10/09 07:24:55;;;;;;;23.60;8.70;;;11.70;90.20;;;;;;4173670;28;20033;-63
2021/10/09 07:26:56;;;;;;;18.03;7.27;;;11.70;90.40;;;;;;4189507;28;20109;-63
2021/10/09 07:28:57;;;;;;;18.07;7.17;;;11.70;90.00;;;;;;4186613;28;20469;-72
2021/10/09 07:30:58;;;;;;;18.33;8.00;;;11.70;88.90;;;;;;4189042;28;20040;-61
2021/10/09 07:33:00;;;;;;;22.63;7.13;;;11.50;87.40;;;;;;4191297;28;20185;-67
2021/10/09 07:35:01;;;;;;;11.97;6.33;;;11.10;87.90;;;;;;4188963;28;20074;-62
2021/10/09 07:37:02;;;;;;;14.20;7.27;;;11.00;88.30;;;;;;4190704;28;20078;-62
2021/10/09 07:39:03;;;;;;;18.03;7.23;;;10.90;88.00;;;;;;4188033;28;20543;-62
2021/10/09 07:41:04;;;;;;;19.73;7.70;;;10.80;88.30;;;;;;4190469;28;20033;-62
2021/10/09 07:43:06;;;;;;;15.77;6.20;;;10.70;87.20;;;;;;4171557;28;20032;-61
2021/10/09 07:45:07;;;;;;;13.93;5.53;;;10.50;88.00;;;;;;4174349;28;20090;-65
2021/10/09 07:47:09;;;;;;;17.10;5.87;;;10.20;87.00;;;;;;4172535;28;20094;-62
2021/10/09 07:49:10;;;;;;;11.27;5.70;;;9.90;88.20;;;;;;4173656;28;20087;-62
2021/10/09 07:51:11;;;;;;;12.63;5.40;;;9.90;87.60;;;;;;4172563;28;20621;-62
2021/10/09 07:53:12;;;;;;;18.43;6.03;;;9.40;88.20;;;;;;4173791;28;20037;-62
2021/10/09 07:55:13;;;;;;;14.37;5.23;;;9.30;89.10;;;;;;4173902;28;20033;-64
2021/10/09 07:57:15;;;;;;;13.70;4.77;;;9.20;89.30;;;;;;4171970;28;20052;-65
2021/10/09 07:59:16;;;;;;;16.50;6.27;;;9.30;89.30;;;;;;4173722;28;20095;-64
2021/10/09 08:01:17;;;;;;;14.60;6.63;;;9.30;89.20;;;;;;4172203;28;20075;-64
2021/10/09 08:03:23;;;;;;;13.83;5.77;;;9.30;89.30;;;;;;4174188;28;20546;-63
2021/10/09 08:05:24;;;;;;;12.00;4.33;;;9.20;89.30;;;;;;4172312;28;20075;-62
2021/10/09 08:07:26;;;;;;;10.53;5.30;;;9.40;89.60;;;;;;4174478;28;20045;-66
2021/10/09 08:09:31;;;;;;;13.73;6.07;;;9.60;88.90;;;;;;4179976;28;20427;-67
2021/10/09 08:11:32;;;;;;;15.43;5.37;;;9.50;89.10;;;;;;4174018;28;20059;-63
2021/10/09 08:13:35;;;;;;;11.93;4.77;;;9.60;89.30;;;;;;4172498;28;20067;-62
2021/10/09 08:15:36;;;;;;;14.97;5.27;;;9.50;89.00;;;;;;4173802;28;20543;-63
2021/10/09 08:17:38;;;;;;;14.53;5.57;;;9.70;89.00;;;;;;4173138;28;20025;-63
2021/10/09 08:19:40;;;;;;;13.13;5.80;;;9.70;89.10;;;;;;4173469;28;20049;-63
2021/10/09 08:21:42;;;;;;;14.40;5.93;;;9.60;89.30;;;;;;4172064;28;20457;-65
2021/10/09 08:23:49;;;;;;;15.83;6.17;;;9.70;89.50;;;;;;4172659;28;20021;-64
2021/10/09 08:36:17;;;;;;;11.15;5.38;;;10.80;87.60;;;;;;4172104;28;21066;-61
2021/10/09 08:39:47;;;;;;;17.63;6.27;;;10.90;88.00;;;;;;4171994;28;20099;-65
2021/10/09 08:41:50;;;;;;;15.60;5.80;;;10.90;87.50;;;;;;4173016;28;20028;-63
2021/10/09 08:43:53;;;;;;;18.57;6.20;;;10.90;88.00;;;;;;4170467;28;20033;-65
2021/10/09 08:45:54;;;;;;;17.87;6.63;;;11.20;87.60;;;;;;4173043;28;20473;-63
2021/10/09 08:47:55;;;;;;;15.03;6.47;;;11.20;87.10;;;;;;4171543;28;20591;-63
2021/10/09 08:50:01;;;;;;;16.90;5.77;;;11.00;87.50;;;;;;4165599;28;20525;-63
2021/10/09 08:52:03;;;;;;;16.10;5.93;;;10.90;87.50;;;;;;4159171;28;20041;-63
2021/10/09 08:54:06;;;;;;;18.60;6.07;;;10.90;87.80;;;;;;4169995;28;20044;-63
2021/10/09 08:56:08;;;;;;;23.40;8.40;;;10.90;87.40;;;;;;4170160;28;20041;-62
2021/10/09 08:58:28;;;;;;;14.23;6.57;;;10.80;87.70;;;;;;4170253;28;20040;-67
2021/10/09 09:00:42;;;;;;;20.08;5.78;;;10.80;87.50;;;;;;4168533;28;20049;-64
2021/10/09 09:03:05;;;;;;;15.73;5.77;;;10.90;87.30;;;;;;4172008;28;20114;-67
2021/10/09 09:25:14;;;;;;;24.63;7.10;;;11.00;87.30;;;;;;4169557;28;20110;-63
2021/10/09 09:40:05;;;;;;;9.77;3.57;;;10.80;87.30;;;;;;4169850;28;20448;-63
2021/10/09 09:42:07;;;;;;;12.40;4.90;;;10.80;87.30;;;;;;4169275;28;20099;-64
2021/10/09 09:44:11;;;;;;;13.40;4.60;;;10.70;87.20;;;;;;4169229;28;20041;-63
2021/10/09 09:46:14;;;;;;;10.07;4.13;;;10.70;87.70;;;;;;4170944;28;20165;-68
2021/10/09 09:48:16;;;;;;;14.23;4.07;;;10.80;87.70;;;;;;4169884;28;20029;-64
2021/10/09 09:50:17;;;;;;;20.40;7.33;;;10.80;87.70;;;;;;4165816;28;20110;-68
2021/10/09 09:52:20;;;;;;;6.17;3.30;;;11.00;87.70;;;;;;4170324;28;20025;-63
2021/10/09 09:54:27;;;;;;;11.47;3.50;;;11.10;87.10;;;;;;4169663;28;20095;-63
2021/10/09 09:56:30;;;;;;;7.40;3.03;;;11.10;86.80;;;;;;4170362;28;20057;-63
2021/10/09 09:58:41;;;;;;;15.77;5.37;;;11.20;87.10;;;;;;4170027;28;20029;-69
2021/10/09 10:00:43;;;;;;;15.67;4.33;;;11.30;87.00;;;;;;4170587;28;20033;-64
2021/10/09 10:02:51;;;;;;;8.77;4.43;;;11.30;86.90;;;;;;4168879;28;20079;-63
2021/10/09 10:04:53;;;;;;;10.77;3.80;;;11.30;86.40;;;;;;4182218;28;20048;-63
2021/10/09 10:06:56;;;;;;;5.67;2.80;;;11.40;86.90;;;;;;4175836;28;20132;-63
2021/10/09 10:08:59;;;;;;;11.43;4.50;;;11.50;86.80;;;;;;4173927;28;20134;-63
2021/10/09 10:11:02;;;;;;;13.73;3.47;;;11.50;86.60;;;;;;4173207;28;20029;-67
2021/10/09 10:13:04;;;;;;;7.07;3.40;;;11.40;86.40;;;;;;4174304;28;20049;-63
2021/10/09 10:15:09;;;;;;;10.30;3.90;;;11.50;86.30;;;;;;4172751;28;20049;-62
2021/10/09 10:17:10;;;;;;;14.07;4.30;;;11.40;86.00;;;;;;4175387;28;20020;-69
2021/10/09 10:19:11;;;;;;;10.97;3.53;;;11.50;86.80;;;;;;4172828;28;20443;-65
2021/10/09 10:21:14;;;;;;;9.30;3.23;;;11.60;86.30;;;;;;4174676;28;20170;-63
2021/10/09 10:23:36;;;;;;;8.23;3.57;;;11.80;86.40;;;;;;4176038;28;20045;-63
2021/10/09 10:25:37;;;;;;;8.83;4.20;;;11.90;85.70;;;;;;4174421;28;20053;-62
2021/10/09 10:27:44;;;;;;;11.97;4.23;;;12.00;86.10;;;;;;4172996;28;20071;-62
2021/10/09 10:29:45;;;;;;;11.70;3.50;;;11.90;85.70;;;;;;4173766;28;20453;-63
2021/10/09 10:32:08;;;;;;;8.73;2.93;;;11.90;85.90;;;;;;4173168;28;20082;-63
2021/10/09 10:34:23;;;;;;;8.27;3.27;;;11.90;85.50;;;;;;4175023;28;20045;-63
2021/10/09 10:36:46;;;;;;;7.00;3.27;;;12.10;85.40;;;;;;4162068;28;20158;-65
2021/10/09 10:38:53;;;;;;;10.93;3.50;;;12.20;85.20;;;;;;4159485;28;20087;-64
2021/10/09 10:40:58;;;;;;;7.57;3.27;;;12.30;85.10;;;;;;4161206;28;20059;-63
2021/10/09 10:43:37;;;;;;;13.93;3.37;;;12.40;85.20;;;;;;4192117;28;20102;-63
2021/10/09 10:45:39;;;;;;;8.03;3.53;;;12.30;84.50;;;;;;4188905;28;20048;-64
2021/10/09 10:48:05;;;;;;;8.63;3.57;;;12.30;85.50;;;;;;4191762;28;20437;-62
2021/10/09 10:50:21;;;;;;;11.93;3.57;;;12.30;85.60;;;;;;4188875;28;20923;-65
2021/10/09 10:53:04;;;;;;;9.13;3.37;;;12.30;85.40;;;;;;4191089;28;20036;-63
2021/10/09 10:55:06;;;;;;;9.70;3.10;;;12.20;84.10;;;;;;4154214;28;20049;-63
2021/10/09 10:57:07;;;;;;;6.83;4.00;;;12.20;85.10;;;;;;4157626;28;20091;-63
2021/10/09 10:59:30;;;;;;;9.03;4.83;;;12.20;85.00;;;;;;4156922;28;20087;-64
2021/10/09 11:01:31;;;;;;;11.73;4.40;;;12.30;84.90;;;;;;4157420;28;20091;-62
2021/10/09 11:03:33;;;;;;;11.83;4.27;;;12.30;85.40;;;;;;4157222;28;20022;-63
2021/10/09 11:05:35;;;;;;;8.50;3.33;;;12.10;85.60;;;;;;4166705;28;20037;-62
2021/10/09 11:07:38;;;;;;;10.03;3.83;;;12.00;86.10;;;;;;4172769;28;20776;-64
2021/10/09 11:09:45;;;;;;;13.67;3.73;;;12.10;86.10;;;;;;4159617;28;20441;-63
2021/10/09 11:11:46;;;;;;;8.83;3.97;;;12.10;86.10;;;;;;4177446;28;20105;-63
2021/10/09 11:13:48;;;;;;;17.70;4.90;;;12.10;86.10;;;;;;4190376;28;20044;-63
2021/10/09 11:15:51;;;;;;;8.53;3.90;;;12.10;86.20;;;;;;4188826;28;20090;-63
2021/10/09 11:17:55;;;;;;;7.47;3.90;;;12.20;86.20;;;;;;4191736;28;20048;-63
2021/10/09 11:19:56;;;;;;;11.43;4.33;;;12.20;85.90;;;;;;4188444;28;21008;-65
2021/10/09 11:21:57;;;;;;;10.50;3.43;;;12.20;86.20;;;;;;4189673;28;20098;-66
2021/10/09 11:24:00;;;;;;;11.13;3.63;;;12.20;86.20;;;;;;4189737;28;20028;-65
2021/10/09 11:26:03;;;;;;;13.07;3.40;;;12.30;86.30;;;;;;4191511;28;20118;-65
2021/10/09 11:28:27;;;;;;;12.47;4.20;;;12.50;86.20;;;;;;4189949;28;20583;-64
2021/10/09 11:30:30;;;;;;;12.83;3.87;;;12.70;85.80;;;;;;4191474;28;20036;-64
2021/10/09 11:32:35;;;;;;;15.83;4.43;;;12.70;85.40;;;;;;4189894;28;20743;-65
2021/10/09 11:34:49;;;;;;;8.07;3.70;;;12.80;85.50;;;;;;4190924;28;20033;-68
2021/10/09 11:36:53;;;;;;;9.13;3.80;;;12.90;84.90;;;;;;4188078;28;20433;-62
2021/10/09 11:39:05;;;;;;;7.00;3.53;;;12.90;85.30;;;;;;4174719;28;20040;-65
2021/10/09 11:41:19;;;;;;;6.97;3.43;;;13.10;85.00;;;;;;4172991;28;20033;-65
2021/10/09 11:45:49;;;;;;;13.33;3.90;;;13.10;84.90;;;;;;4174113;28;20071;-64
2021/10/09 11:55:01;;;;;;;9.35;4.55;;;13.10;84.70;;;;;;4189435;28;20094;-64
2021/10/09 11:57:05;;;;;;;8.10;4.63;;;12.90;84.80;;;;;;4184147;28;20102;-64
2021/10/09 11:59:07;;;;;;;10.97;4.60;;;12.90;85.30;;;;;;4172612;28;20037;-64
2021/10/09 12:01:25;;;;;;;9.87;4.23;;;12.80;85.20;;;;;;4187261;28;20029;-64
2021/10/09 12:03:28;;;;;;;6.83;3.80;;;12.70;85.40;;;;;;4188879;28;20449;-63
2021/10/09 12:05:52;;;;;;;9.13;4.37;;;12.60;85.80;;;;;;4191070;28;20044;-65
2021/10/09 12:08:14;;;;;;;13.63;5.17;;;12.50;85.60;;;;;;4188722;28;20025;-65
2021/10/09 12:10:19;;;;;;;13.53;4.60;;;12.50;85.80;;;;;;4188749;28;20102;-65
2021/10/09 12:12:31;;;;;;;10.57;4.43;;;12.50;86.00;;;;;;4188609;28;20025;-64
2021/10/09 12:14:32;;;;;;;14.03;5.17;;;12.40;86.20;;;;;;4190539;28;20570;-61
2021/10/09 12:16:42;;;;;;;12.97;4.63;;;12.50;86.30;;;;;;4188529;28;20032;-64
2021/10/09 12:18:47;;;;;;;9.70;4.70;;;12.50;86.10;;;;;;4181180;28;20098;-66
2021/10/09 12:20:49;;;;;;;11.30;5.00;;;12.70;86.20;;;;;;4179282;28;20469;-65
2021/10/09 12:22:55;;;;;;;8.73;3.80;;;12.60;85.90;;;;;;4190224;28;20044;-66
2021/10/09 12:24:56;;;;;;;11.03;4.53;;;12.50;86.10;;;;;;4188715;28;20033;-64
2021/10/09 12:27:16;;;;;;;15.40;4.67;;;12.50;86.30;;;;;;4190134;28;20028;-64
2021/10/09 12:29:17;;;;;;;13.03;4.57;;;12.40;86.10;;;;;;4186688;28;20102;-64
2021/10/09 12:31:45;;;;;;;8.50;4.87;;;12.40;86.20;;;;;;4190097;28;20106;-65
2021/10/09 12:33:46;;;;;;;9.73;4.00;;;12.40;86.30;;;;;;4188480;28;20071;-67
2021/10/09 12:35:47;;;;;;;11.83;4.77;;;12.50;86.20;;;;;;4190494;28;20040;-65
2021/10/09 12:38:03;;;;;;;8.33;3.90;;;12.60;86.10;;;;;;4188332;28;20078;-64
2021/10/09 12:40:11;;;;;;;14.27;4.70;;;12.50;85.10;;;;;;4189853;28;20036;-64
2021/10/09 12:42:15;;;;;;;8.03;4.37;;;12.50;85.70;;;;;;4187109;28;20036;-65
2021/10/09 12:44:16;;;;;;;11.27;4.33;;;12.50;85.60;;;;;;4190075;28;20419;-65
2021/10/09 12:46:17;;;;;;;10.33;4.53;;;12.50;85.40;;;;;;4188481;28;20181;-64
2021/10/09 12:48:19;;;;;;;9.47;4.73;;;12.50;85.50;;;;;;4190290;28;20965;-65